createdAt,value
2019-05-20T00:00:17.082Z,15.20
2019-05-20T00:02:46.354Z,15.30
2019-05-20T00:05:15.268Z,15.20
2019-05-20T00:07:44.186Z,15.20
2019-05-20T00:10:13.164Z,15.10
2019-05-20T00:12:42.219Z,15.10
2019-05-20T00:15:11.177Z,15.20
2019-05-20T00:17:40.126Z,15.10
2019-05-20T00:20:10.376Z,15.10
2019-05-20T00:22:39.361Z,15.00
2019-05-20T00:25:08.824Z,15.00
2019-05-20T00:27:38.015Z,15.00
2019-05-20T00:30:08.019Z,14.90
2019-05-20T00:32:42.084Z,15.00
2019-05-20T00:35:08.479Z,15.10
2019-05-20T00:37:37.473Z,15.20
2019-05-20T00:40:07.077Z,15.20
2019-05-20T00:42:36.198Z,15.30
2019-05-20T00:45:05.718Z,15.20
2019-05-20T00:47:34.990Z,15.20
2019-05-20T00:50:04.267Z,15.20
2019-05-20T00:52:33.365Z,15.20
2019-05-20T00:55:02.623Z,15.00
2019-05-20T00:57:31.764Z,15.00
2019-05-20T01:00:01.015Z,15.20
2019-05-20T01:02:30.025Z,15.30
2019-05-20T01:04:59.300Z,15.30
2019-05-20T01:07:28.554Z,15.30
2019-05-20T01:09:57.388Z,15.20
2019-05-20T01:12:27.355Z,15.00
2019-05-20T01:14:56.230Z,14.70
2019-05-20T01:17:25.290Z,14.60
2019-05-20T01:19:54.224Z,14.60
2019-05-20T01:22:23.318Z,14.60
2019-05-20T01:24:52.398Z,14.50
2019-05-20T01:27:21.266Z,14.50
2019-05-20T01:29:50.149Z,14.70
2019-05-20T01:32:19.075Z,14.80
2019-05-20T01:34:47.979Z,14.70
2019-05-20T01:37:16.905Z,14.80
2019-05-20T01:39:45.883Z,14.70
2019-05-20T01:42:17.654Z,14.50
2019-05-20T01:44:46.466Z,14.40
2019-05-20T01:47:15.321Z,14.40
2019-05-20T01:49:44.249Z,14.50
2019-05-20T01:52:13.184Z,14.40
2019-05-20T01:54:42.177Z,14.40
2019-05-20T01:57:11.304Z,14.30
2019-05-20T01:59:40.393Z,14.40
2019-05-20T02:02:09.333Z,14.20
2019-05-20T02:04:38.294Z,14.20
2019-05-20T02:07:07.119Z,14.20
2019-05-20T02:09:35.955Z,14.20
2019-05-20T02:12:04.980Z,14.20
2019-05-20T02:14:38.536Z,14.20
2019-05-20T02:17:07.470Z,14.30
2019-05-20T02:19:36.462Z,14.10
2019-05-20T02:22:05.440Z,14.00
2019-05-20T02:24:35.854Z,13.90
2019-05-20T02:27:04.762Z,13.80
2019-05-20T02:29:33.684Z,13.80
2019-05-20T02:32:02.530Z,13.70
2019-05-20T02:34:31.450Z,13.70
2019-05-20T02:37:00.454Z,13.90
2019-05-20T02:39:29.363Z,13.90
2019-05-20T02:41:58.329Z,13.90
2019-05-20T02:44:27.361Z,14.00
2019-05-20T02:46:56.231Z,14.10
2019-05-20T02:49:25.330Z,14.10
2019-05-20T02:51:54.365Z,14.20
2019-05-20T02:54:23.289Z,14.20
2019-05-20T02:56:52.187Z,14.10
2019-05-20T02:59:21.110Z,14.10
2019-05-20T03:01:49.933Z,14.10
2019-05-20T03:04:18.939Z,14.10
2019-05-20T03:06:47.828Z,14.00
2019-05-20T03:09:16.686Z,14.00
2019-05-20T03:11:45.612Z,13.90
2019-05-20T03:14:14.590Z,13.90
2019-05-20T03:16:43.513Z,13.90
2019-05-20T03:19:12.557Z,13.90
2019-05-20T03:21:41.385Z,13.90
2019-05-20T03:24:10.227Z,13.90
2019-05-20T03:26:39.173Z,13.80
2019-05-20T03:29:08.079Z,13.70
2019-05-20T03:31:36.952Z,13.80
2019-05-20T03:34:06.938Z,13.80
2019-05-20T03:36:35.836Z,14.00
2019-05-20T03:39:06.031Z,14.00
2019-05-20T03:41:34.916Z,14.10
2019-05-20T03:44:03.914Z,14.10
2019-05-20T03:46:32.841Z,14.10
2019-05-20T03:49:01.722Z,14.10
2019-05-20T03:51:30.669Z,14.20
2019-05-20T03:53:59.503Z,14.10
2019-05-20T03:56:28.413Z,14.10
2019-05-20T03:58:57.450Z,14.00
2019-05-20T04:01:26.263Z,14.00
2019-05-20T04:03:55.148Z,14.00
2019-05-20T04:06:24.118Z,13.90
2019-05-20T04:08:52.950Z,14.10
2019-05-20T04:11:21.963Z,14.10
2019-05-20T04:13:50.881Z,14.30
2019-05-20T04:16:19.784Z,14.50
2019-05-20T04:18:48.857Z,14.40
2019-05-20T04:21:17.733Z,14.50
2019-05-20T04:23:46.713Z,14.50
2019-05-20T04:26:16.141Z,14.50
2019-05-20T04:28:45.210Z,14.70
2019-05-20T04:31:14.646Z,14.70
2019-05-20T04:33:44.507Z,14.70
2019-05-20T04:36:14.462Z,14.80
2019-05-20T04:38:43.557Z,14.80
2019-05-20T04:41:12.799Z,14.80
2019-05-20T04:43:41.980Z,14.90
2019-05-20T04:46:11.094Z,15.00
2019-05-20T04:48:40.022Z,15.10
2019-05-20T04:51:09.188Z,15.20
2019-05-20T04:53:38.459Z,15.10
2019-05-20T04:56:07.538Z,15.20
2019-05-20T04:58:36.663Z,15.30
2019-05-20T05:01:05.568Z,15.30
2019-05-20T05:03:34.499Z,15.40
2019-05-20T05:06:03.634Z,15.50
2019-05-20T05:08:32.650Z,15.70
2019-05-20T05:11:01.603Z,15.70
2019-05-20T05:13:30.671Z,15.80
2019-05-20T05:16:00.498Z,15.80
2019-05-20T05:18:29.446Z,15.80
2019-05-20T05:20:58.403Z,16.00
2019-05-20T05:23:27.616Z,16.20
2019-05-20T05:25:56.517Z,16.40
2019-05-20T05:28:25.546Z,16.50
2019-05-20T05:30:54.638Z,16.60
2019-05-20T05:33:23.733Z,16.70
2019-05-20T05:35:53.846Z,16.90
2019-05-20T05:38:23.304Z,17.00
2019-05-20T05:40:52.458Z,17.10
2019-05-20T05:43:21.599Z,17.20
2019-05-20T05:45:50.725Z,17.20
2019-05-20T05:48:20.936Z,17.40
2019-05-20T05:50:49.761Z,17.30
2019-05-20T05:53:18.626Z,17.60
2019-05-20T05:55:47.496Z,17.60
2019-05-20T05:58:16.603Z,17.70
2019-05-20T06:00:45.653Z,17.70
2019-05-20T06:03:14.588Z,17.60
2019-05-20T06:05:43.515Z,17.60
2019-05-20T06:08:12.412Z,17.60
2019-05-20T06:10:41.259Z,17.70
2019-05-20T06:13:10.151Z,17.60
2019-05-20T06:15:39.081Z,17.60
2019-05-20T06:18:07.920Z,17.50
2019-05-20T06:20:36.917Z,17.40
2019-05-20T06:23:06.010Z,17.20
2019-05-20T06:25:35.299Z,17.00
2019-05-20T06:28:05.333Z,17.00
2019-05-20T06:30:40.044Z,17.00
2019-05-20T06:33:09.083Z,17.00
2019-05-20T06:35:38.190Z,17.20
2019-05-20T06:38:10.789Z,17.40
2019-05-20T06:40:39.865Z,17.50
2019-05-20T06:43:08.741Z,17.70
2019-05-20T06:45:37.765Z,17.60
2019-05-20T06:48:06.657Z,17.70
2019-05-20T06:50:35.747Z,17.60
2019-05-20T06:53:04.726Z,17.60
2019-05-20T06:55:33.762Z,17.50
2019-05-20T06:58:02.629Z,17.60
2019-05-20T07:00:34.150Z,17.70
2019-05-20T07:03:03.177Z,17.90
2019-05-20T07:05:32.050Z,17.90
2019-05-20T07:08:01.492Z,17.90
2019-05-20T07:10:32.367Z,18.00
2019-05-20T07:13:01.747Z,17.90
2019-05-20T07:15:30.987Z,18.00
2019-05-20T07:18:00.197Z,18.00
2019-05-20T07:20:29.596Z,18.20
2019-05-20T07:22:58.993Z,18.30
2019-05-20T07:25:31.434Z,18.50
2019-05-20T07:28:00.361Z,18.40
2019-05-20T07:30:29.819Z,18.40
2019-05-20T07:32:58.691Z,18.50
2019-05-20T07:35:30.793Z,18.60
2019-05-20T07:37:58.380Z,18.70
2019-05-20T07:40:32.038Z,18.80
2019-05-20T07:43:01.437Z,18.90
2019-05-20T07:45:33.669Z,19.00
2019-05-20T07:48:03.363Z,19.30
2019-05-20T07:50:33.837Z,19.40
2019-05-20T07:53:03.037Z,19.40
2019-05-20T07:55:35.318Z,19.50
2019-05-20T07:58:08.407Z,19.60
2019-05-20T08:00:37.734Z,19.50
2019-05-20T08:03:06.847Z,19.60
2019-05-20T08:05:36.067Z,19.70
2019-05-20T08:08:05.183Z,19.50
2019-05-20T08:10:34.226Z,19.80
2019-05-20T08:13:03.278Z,19.80
2019-05-20T08:15:32.223Z,19.90
2019-05-20T08:18:01.407Z,19.80
2019-05-20T08:20:30.460Z,19.70
2019-05-20T08:22:59.566Z,19.80
2019-05-20T08:25:28.579Z,19.90
2019-05-20T08:27:57.485Z,19.90
2019-05-20T08:30:35.142Z,19.80
2019-05-20T08:33:04.617Z,19.80
2019-05-20T08:35:33.737Z,19.80
2019-05-20T08:38:02.699Z,19.90
2019-05-20T08:40:31.962Z,20.00
2019-05-20T08:43:01.164Z,20.20
2019-05-20T08:45:30.143Z,20.30
2019-05-20T08:47:59.593Z,20.40
2019-05-20T08:50:28.707Z,20.60
2019-05-20T08:52:57.965Z,20.70
2019-05-20T08:55:27.257Z,20.80
2019-05-20T08:57:56.468Z,20.80
2019-05-20T09:00:25.836Z,20.70
2019-05-20T09:02:55.013Z,20.80
2019-05-20T09:05:27.689Z,20.90
2019-05-20T09:08:03.097Z,21.00
2019-05-20T09:10:25.600Z,20.90
2019-05-20T09:12:54.506Z,21.10
2019-05-20T09:15:23.646Z,21.20
2019-05-20T09:17:52.779Z,21.20
2019-05-20T09:20:22.050Z,21.20
2019-05-20T09:22:51.088Z,21.20
2019-05-20T09:25:29.004Z,21.10
2019-05-20T09:27:58.060Z,21.20
2019-05-20T09:30:27.103Z,21.20
2019-05-20T09:32:56.302Z,21.10
2019-05-20T09:35:25.311Z,21.20
2019-05-20T09:37:54.227Z,21.20
2019-05-20T09:40:51.621Z,21.30
2019-05-20T09:43:20.574Z,21.40
2019-05-20T09:46:05.804Z,21.60
2019-05-20T09:48:20.095Z,21.60
2019-05-20T09:50:49.015Z,21.70
2019-05-20T09:53:17.870Z,21.60
2019-05-20T09:55:46.767Z,21.70
2019-05-20T09:58:15.700Z,21.90
2019-05-20T10:00:44.855Z,22.10
2019-05-20T10:03:13.755Z,22.10
2019-05-20T10:05:42.677Z,22.10
2019-05-20T10:08:11.676Z,22.40
2019-05-20T10:10:40.586Z,22.70
2019-05-20T10:13:09.558Z,22.90
2019-05-20T10:15:38.649Z,22.90
2019-05-20T10:18:08.600Z,22.80
2019-05-20T10:20:37.576Z,22.60
2019-05-20T10:23:06.721Z,22.60
2019-05-20T10:25:35.862Z,22.60
2019-05-20T10:28:04.862Z,22.70
2019-05-20T10:30:33.897Z,22.70
2019-05-20T10:33:02.985Z,23.00
2019-05-20T10:35:31.832Z,23.20
2019-05-20T10:38:00.735Z,23.00
2019-05-20T10:40:29.865Z,23.30
2019-05-20T10:42:58.770Z,23.30
2019-05-20T10:45:27.658Z,23.30
2019-05-20T10:47:56.480Z,23.50
2019-05-20T10:50:25.377Z,23.70
2019-05-20T10:52:54.379Z,23.80
2019-05-20T10:55:23.391Z,23.80
2019-05-20T10:57:52.818Z,23.60
2019-05-20T11:00:21.895Z,23.50
2019-05-20T11:02:50.769Z,23.50
2019-05-20T11:05:19.877Z,23.50
2019-05-20T11:07:49.219Z,23.40
2019-05-20T11:10:18.324Z,23.30
2019-05-20T11:12:47.286Z,23.50
2019-05-20T11:15:16.324Z,23.80
2019-05-20T11:17:45.422Z,23.90
2019-05-20T11:20:14.667Z,24.10
2019-05-20T11:22:43.640Z,24.10
2019-05-20T11:25:14.292Z,24.10
2019-05-20T11:27:43.129Z,23.90
2019-05-20T11:30:12.760Z,23.30
2019-05-20T11:32:41.782Z,23.00
2019-05-20T11:35:11.189Z,22.80
2019-05-20T11:37:40.050Z,22.50
2019-05-20T11:40:10.086Z,22.50
2019-05-20T11:42:39.621Z,22.30
2019-05-20T11:45:09.447Z,22.30
2019-05-20T11:47:38.545Z,22.20
2019-05-20T11:50:09.266Z,22.10
2019-05-20T11:52:38.337Z,21.80
2019-05-20T11:55:08.319Z,21.70
2019-05-20T11:57:37.317Z,21.40
2019-05-20T12:00:06.686Z,20.90
2019-05-20T12:02:35.531Z,20.40
2019-05-20T12:05:04.800Z,20.00
2019-05-20T12:07:33.930Z,19.40
2019-05-20T12:10:02.848Z,18.80
2019-05-20T12:12:31.769Z,18.40
2019-05-20T12:15:03.054Z,18.30
2019-05-20T12:17:32.630Z,18.00
2019-05-20T12:20:01.650Z,17.80
2019-05-20T12:22:30.608Z,17.60
2019-05-20T12:24:59.495Z,17.30
2019-05-20T12:27:28.465Z,17.00
2019-05-20T12:29:57.349Z,16.80
2019-05-20T12:32:26.379Z,16.80
2019-05-20T12:34:55.378Z,16.80
2019-05-20T12:37:24.611Z,16.90
2019-05-20T12:40:06.523Z,17.10
2019-05-20T12:42:24.258Z,17.30
2019-05-20T12:44:53.566Z,17.50
2019-05-20T12:47:22.511Z,17.70
2019-05-20T12:49:51.359Z,17.70
2019-05-20T12:52:20.434Z,17.90
2019-05-20T12:55:06.165Z,18.00
2019-05-20T12:57:20.055Z,18.10
2019-05-20T12:59:48.912Z,18.20
2019-05-20T13:02:17.790Z,18.40
2019-05-20T13:04:46.649Z,18.40
2019-05-20T13:07:15.652Z,18.50
2019-05-20T13:09:47.892Z,18.70
2019-05-20T13:12:16.828Z,18.90
2019-05-20T13:14:45.750Z,19.10
2019-05-20T13:17:14.641Z,19.10
2019-05-20T13:19:43.451Z,19.20
2019-05-20T13:22:13.139Z,19.40
2019-05-20T13:24:41.972Z,19.50
2019-05-20T13:27:10.907Z,19.70
2019-05-20T13:29:39.938Z,19.80
2019-05-20T13:32:08.859Z,19.90
2019-05-20T13:34:37.789Z,19.90
2019-05-20T13:37:06.759Z,20.00
2019-05-20T13:39:37.251Z,20.00
2019-05-20T13:42:06.100Z,20.20
2019-05-20T13:44:34.964Z,20.60
2019-05-20T13:47:03.798Z,20.70
2019-05-20T13:49:32.747Z,21.00
2019-05-20T13:52:01.739Z,21.00
2019-05-20T13:54:30.736Z,21.00
2019-05-20T13:56:59.870Z,21.20
2019-05-20T13:59:28.782Z,21.00
2019-05-20T14:02:01.460Z,20.70
2019-05-20T14:04:30.442Z,20.50
2019-05-20T14:06:59.387Z,20.30
2019-05-20T14:09:28.369Z,20.20
2019-05-20T14:11:57.251Z,20.30
2019-05-20T14:14:26.150Z,20.50
2019-05-20T14:16:54.986Z,20.80
2019-05-20T14:19:23.952Z,21.00
2019-05-20T14:21:52.998Z,21.30
2019-05-20T14:24:21.944Z,21.30
2019-05-20T14:26:50.867Z,21.50
2019-05-20T14:29:19.726Z,21.40
2019-05-20T14:31:48.745Z,21.30
2019-05-20T14:34:17.634Z,21.30
2019-05-20T14:36:46.586Z,21.30
2019-05-20T14:39:15.542Z,21.40
2019-05-20T14:41:44.357Z,21.50
2019-05-20T14:44:13.199Z,22.00
2019-05-20T14:46:42.053Z,22.10
2019-05-20T14:49:10.972Z,22.20
2019-05-20T14:51:39.871Z,21.90
2019-05-20T14:54:08.737Z,21.90
2019-05-20T14:56:37.557Z,21.70
2019-05-20T14:59:06.389Z,22.00
2019-05-20T15:01:35.270Z,22.20
2019-05-20T15:04:04.318Z,21.90
2019-05-20T15:06:33.250Z,21.80
2019-05-20T15:09:02.176Z,21.60
2019-05-20T15:11:38.310Z,21.60
2019-05-20T15:14:01.706Z,21.30
2019-05-20T15:16:30.673Z,21.20
2019-05-20T15:18:59.525Z,21.00
2019-05-20T15:21:29.574Z,20.90
2019-05-20T15:23:58.715Z,20.90
2019-05-20T15:26:27.654Z,20.90
2019-05-20T15:28:56.748Z,21.00
2019-05-20T15:31:25.706Z,21.10
2019-05-20T15:33:54.722Z,21.00
2019-05-20T15:36:23.563Z,21.10
2019-05-20T15:38:52.488Z,21.00
2019-05-20T15:41:21.367Z,20.90
2019-05-20T15:43:50.203Z,20.80
2019-05-20T15:46:19.050Z,20.80
2019-05-20T15:48:47.913Z,20.70
2019-05-20T15:51:16.758Z,20.60
2019-05-20T15:53:45.576Z,20.40
2019-05-20T15:56:14.541Z,20.30
2019-05-20T15:58:43.462Z,20.40
2019-05-20T16:01:12.398Z,20.40
2019-05-20T16:03:41.433Z,20.30
2019-05-20T16:06:10.407Z,20.10
2019-05-20T16:08:39.273Z,20.00
2019-05-20T16:11:08.314Z,19.90
2019-05-20T16:13:37.285Z,19.90
2019-05-20T16:16:06.693Z,19.80
2019-05-20T16:18:37.384Z,19.80
2019-05-20T16:21:12.515Z,19.70
2019-05-20T16:23:41.448Z,19.70
2019-05-20T16:26:10.505Z,19.70
2019-05-20T16:28:39.615Z,19.70
2019-05-20T16:31:08.623Z,19.70
2019-05-20T16:33:40.447Z,19.60
2019-05-20T16:36:09.513Z,19.60
2019-05-20T16:38:38.339Z,19.70
2019-05-20T16:41:07.190Z,19.60
2019-05-20T16:43:36.026Z,19.80
2019-05-20T16:46:08.089Z,19.80
2019-05-20T16:48:37.030Z,19.80
2019-05-20T16:51:05.982Z,19.80
2019-05-20T16:53:34.840Z,19.80
2019-05-20T16:56:04.153Z,19.80
2019-05-20T16:58:33.185Z,19.70
2019-05-20T17:01:02.164Z,19.70
2019-05-20T17:03:32.876Z,19.60
2019-05-20T17:06:01.828Z,19.70
2019-05-20T17:08:30.822Z,19.70
2019-05-20T17:11:18.927Z,19.70
2019-05-20T17:13:47.971Z,19.90
2019-05-20T17:16:16.905Z,20.00
2019-05-20T17:18:45.918Z,20.00
2019-05-20T17:21:14.874Z,19.90
2019-05-20T17:23:44.247Z,20.10
2019-05-20T17:26:13.338Z,20.20
2019-05-20T17:28:42.498Z,20.00
2019-05-20T17:31:14.061Z,20.00
2019-05-20T17:33:42.949Z,20.00
2019-05-20T17:36:12.028Z,20.00
2019-05-20T17:38:41.074Z,20.00
2019-05-20T17:41:10.194Z,19.90
2019-05-20T17:43:41.196Z,20.00
2019-05-20T17:46:10.640Z,20.00
2019-05-20T17:48:40.007Z,20.00
2019-05-20T17:51:09.070Z,19.90
2019-05-20T17:53:37.973Z,19.90
2019-05-20T17:56:07.173Z,19.80
2019-05-20T17:58:37.413Z,19.70
2019-05-20T18:01:15.170Z,19.80
2019-05-20T18:03:39.043Z,19.70
2019-05-20T18:06:08.405Z,19.70
2019-05-20T18:08:40.203Z,19.60
2019-05-20T18:11:09.256Z,19.60
2019-05-20T18:13:38.210Z,19.50
2019-05-20T18:16:07.174Z,19.30
2019-05-20T18:18:36.050Z,19.10
2019-05-20T18:21:05.276Z,19.00
2019-05-20T18:23:34.367Z,19.00
2019-05-20T18:26:03.782Z,19.00
2019-05-20T18:28:37.702Z,18.90
2019-05-20T18:31:06.605Z,18.70
2019-05-20T18:33:38.720Z,18.60
2019-05-20T18:36:07.634Z,18.50
2019-05-20T18:38:36.758Z,18.50
2019-05-20T18:41:07.122Z,18.30
2019-05-20T18:43:37.211Z,18.30
2019-05-20T18:46:06.308Z,18.10
2019-05-20T18:48:38.266Z,18.10
2019-05-20T18:51:07.264Z,18.00
2019-05-20T18:53:36.426Z,17.90
2019-05-20T18:56:05.469Z,17.80
2019-05-20T18:58:34.409Z,17.80
2019-05-20T19:01:03.628Z,17.70
2019-05-20T19:03:33.356Z,17.60
2019-05-20T19:06:02.897Z,17.50
2019-05-20T19:08:31.782Z,17.50
2019-05-20T19:11:02.691Z,17.40
2019-05-20T19:13:31.659Z,17.30
2019-05-20T19:16:00.771Z,17.20
2019-05-20T19:18:29.651Z,17.20
2019-05-20T19:20:58.490Z,17.00
2019-05-20T19:23:27.478Z,16.80
2019-05-20T19:25:56.434Z,16.70
2019-05-20T19:28:25.567Z,16.60
2019-05-20T19:31:02.319Z,16.80
2019-05-20T19:33:31.492Z,17.00
2019-05-20T19:36:00.477Z,17.20
2019-05-20T19:38:34.276Z,17.30
2019-05-20T19:41:00.578Z,17.30
2019-05-20T19:43:32.276Z,17.40
2019-05-20T19:46:13.340Z,17.40
2019-05-20T19:48:42.674Z,17.30
2019-05-20T19:51:11.943Z,17.30
2019-05-20T19:53:41.831Z,17.20
2019-05-20T19:56:11.150Z,17.20
2019-05-20T19:58:40.115Z,17.10
2019-05-20T20:01:09.134Z,17.20
2019-05-20T20:03:38.245Z,17.10
2019-05-20T20:06:07.315Z,17.00
2019-05-20T20:08:36.472Z,17.10
2019-05-20T20:11:05.734Z,17.00
2019-05-20T20:13:36.169Z,16.90
2019-05-20T20:16:06.156Z,17.00
2019-05-20T20:18:38.800Z,17.00
2019-05-20T20:21:08.171Z,17.00
2019-05-20T20:23:37.138Z,16.90
2019-05-20T20:26:06.530Z,16.90
2019-05-20T20:28:35.553Z,16.80
2019-05-20T20:31:04.659Z,16.80
2019-05-20T20:33:37.171Z,16.80
2019-05-20T20:36:08.031Z,16.80
2019-05-20T20:38:37.092Z,16.80
2019-05-20T20:41:08.764Z,16.80
2019-05-20T20:43:37.706Z,16.70
2019-05-20T20:46:06.760Z,16.70
2019-05-20T20:48:35.734Z,16.70
2019-05-20T20:51:04.871Z,16.70
2019-05-20T20:53:33.813Z,16.70
2019-05-20T20:56:02.743Z,16.70
2019-05-20T20:58:31.889Z,16.70
2019-05-20T21:01:00.817Z,16.60
2019-05-20T21:03:29.664Z,16.60
2019-05-20T21:05:59.668Z,16.60
2019-05-20T21:08:28.669Z,16.50
2019-05-20T21:10:57.562Z,16.50
2019-05-20T21:13:26.370Z,16.40
2019-05-20T21:15:58.470Z,16.30
2019-05-20T21:18:25.901Z,16.20
2019-05-20T21:20:56.171Z,16.20
2019-05-20T21:23:25.069Z,16.10
2019-05-20T21:25:54.325Z,16.10
2019-05-20T21:28:23.578Z,16.10
2019-05-20T21:30:52.804Z,16.10
2019-05-20T21:33:21.833Z,16.10
2019-05-20T21:35:50.835Z,16.10
2019-05-20T21:38:19.719Z,16.20
2019-05-20T21:40:48.747Z,16.20
2019-05-20T21:43:19.227Z,16.10
2019-05-20T21:45:48.267Z,16.10
2019-05-20T21:48:17.370Z,16.10
2019-05-20T21:50:46.305Z,16.10
2019-05-20T21:53:15.647Z,16.10
2019-05-20T21:55:44.616Z,16.20
2019-05-20T21:58:13.672Z,16.20
2019-05-20T22:00:55.499Z,16.10
2019-05-20T22:03:25.450Z,16.20
2019-05-20T22:05:54.600Z,16.30
2019-05-20T22:08:23.546Z,16.20
2019-05-20T22:10:52.465Z,16.20
2019-05-20T22:13:21.387Z,16.20
2019-05-20T22:15:50.453Z,16.20
2019-05-20T22:18:19.393Z,16.10
2019-05-20T22:20:48.463Z,16.20
2019-05-20T22:23:55.006Z,16.20
2019-05-20T22:26:24.537Z,16.30
2019-05-20T22:28:53.591Z,16.20
2019-05-20T22:31:22.516Z,16.20
2019-05-20T22:33:51.422Z,16.20
2019-05-20T22:36:20.426Z,16.20
2019-05-20T22:38:49.397Z,16.20
2019-05-20T22:41:18.315Z,16.10
2019-05-20T22:43:47.315Z,16.10
2019-05-20T22:46:16.194Z,16.20
2019-05-20T22:48:45.102Z,16.20
2019-05-20T22:51:14.153Z,16.10
2019-05-20T22:54:01.971Z,16.20
2019-05-20T22:56:32.030Z,16.20
2019-05-20T22:59:01.147Z,16.10
2019-05-20T23:01:29.997Z,16.20
2019-05-20T23:03:59.489Z,16.20
2019-05-20T23:06:28.416Z,16.20
2019-05-20T23:08:57.361Z,16.10
2019-05-20T23:11:26.424Z,16.00
2019-05-20T23:13:55.305Z,15.90
2019-05-20T23:16:24.150Z,15.90
2019-05-20T23:18:52.968Z,15.90
2019-05-20T23:21:21.796Z,15.90
2019-05-20T23:23:50.797Z,16.10
2019-05-20T23:26:19.706Z,16.10
2019-05-20T23:28:48.606Z,16.00
2019-05-20T23:31:17.776Z,16.10
2019-05-20T23:33:47.113Z,16.00
2019-05-20T23:36:16.082Z,15.90
2019-05-20T23:38:45.049Z,15.90
2019-05-20T23:41:14.100Z,15.90
2019-05-20T23:43:43.005Z,15.90
2019-05-20T23:46:11.910Z,16.20
2019-05-20T23:48:40.931Z,16.20
2019-05-20T23:51:09.770Z,16.20
2019-05-20T23:53:39.220Z,16.10
2019-05-20T23:56:08.061Z,16.10
2019-05-20T23:58:36.996Z,16.10
